Time;durP1;ratioP1;P1;durP2;ratioP2;P2;SDS_P1;SDS_P2;PMS_P1;PMS_P2;Temp;Humidity;BMP_temperature;BMP_pressure;BME280_temperature;BME280_humidity;BME280_pressure;Samples;Min_cycle;Max_cycle;Signal;HPM_P1;HPM_P2
2022/09/02 00:00:11;;;;;;;;;;;;;;;17.44;51.56;101677.69;5116023;28;19916;-35
2022/09/02 00:02:36;;;;;;;;;;;;;;;17.28;51.99;101679.44;5116867;27;20006;-35
2022/09/02 00:05:01;;;;;;;;;;;;;;;17.34;51.63;101669.38;5116066;28;19911;-35
2022/09/02 00:07:26;;;;;;;;;;;;;;;17.36;51.87;101672.69;5116239;28;19915;-34
2022/09/02 00:09:52;;;;;;;;;;;;;;;17.31;51.69;101678.09;5115964;28;19915;-35
2022/09/02 00:12:17;;;;;;;;;;;;;;;17.30;51.85;101676.44;5116435;28;20007;-35
2022/09/02 00:14:42;;;;;;;;;;;;;;;17.25;52.09;101680.75;5116006;28;20267;-35
2022/09/02 00:17:07;;;;;;;;;;;;;;;17.25;52.05;101672.56;5116088;28;19934;-35
2022/09/02 00:19:32;;;;;;;;;;;;;;;17.25;52.29;101667.09;5115888;28;20346;-35
2022/09/02 00:21:58;;;;;;;;;;;;;;;17.24;52.54;101668.19;5116276;28;19953;-34
2022/09/02 00:24:24;;;;;;;;;;;;;;;17.14;52.41;101664.50;5116269;28;19963;-35
2022/09/02 00:26:49;;;;;;;;;;;;;;;17.11;52.70;101663.09;5115598;28;20002;-35
2022/09/02 00:29:15;;;;;;;;;;;;;;;17.13;52.88;101668.31;5115575;28;19993;-35
2022/09/02 00:31:41;;;;;;;;;;;;;;;17.09;52.56;101661.72;5115555;28;20255;-35
2022/09/02 00:34:07;;;;;;;;;;;;;;;17.08;52.79;101655.44;5115416;28;19911;-35
2022/09/02 00:36:32;;;;;;;;;;;;;;;17.05;52.58;101657.84;5115173;28;19919;-35
2022/09/02 00:38:57;;;;;;;;;;;;;;;17.06;52.72;101662.22;5114637;28;19923;-35
2022/09/02 00:41:24;;;;;;;;;;;;;;;17.00;53.59;101661.34;5115393;28;19965;-35
2022/09/02 00:44:00;;;;;;;;;;;;;;;16.98;53.00;101664.31;5115283;28;19965;-35
2022/09/02 00:46:27;;;;;;;;;;;;;;;16.90;52.92;101661.19;5115052;28;19937;-35
2022/09/02 00:48:52;;;;;;;;;;;;;;;16.90;53.87;101647.53;5114889;28;19911;-35
2022/09/02 00:51:18;;;;;;;;;;;;;;;16.90;52.74;101644.81;5115263;28;20014;-35
2022/09/02 00:53:45;;;;;;;;;;;;;;;16.84;53.78;101646.66;5115177;28;19919;-35
2022/09/02 00:56:13;;;;;;;;;;;;;;;16.85;53.49;101648.31;5115028;28;20291;-34
2022/09/02 00:58:39;;;;;;;;;;;;;;;16.86;52.94;101644.47;5114973;28;20404;-35
2022/09/02 01:01:05;;;;;;;;;;;;;;;16.82;53.66;101637.06;5115503;28;19915;-35
2022/09/02 01:03:31;;;;;;;;;;;;;;;16.79;53.31;101641.13;5114889;28;20355;-35
2022/09/02 01:05:58;;;;;;;;;;;;;;;16.75;53.83;101641.88;5114841;28;19956;-35
2022/09/02 01:08:27;;;;;;;;;;;;;;;16.70;54.36;101646.16;5114592;28;19935;-35
2022/09/02 01:10:54;;;;;;;;;;;;;;;16.65;54.22;101642.53;5114647;28;19911;-35
2022/09/02 01:13:21;;;;;;;;;;;;;;;16.59;54.22;101638.91;5114957;28;20347;-34
2022/09/02 01:15:50;;;;;;;;;;;;;;;16.59;53.93;101641.66;5115094;28;19956;-35
2022/09/02 01:18:17;;;;;;;;;;;;;;;16.60;54.68;101646.03;5114353;28;20338;-34
2022/09/02 01:20:43;;;;;;;;;;;;;;;16.56;54.40;101635.84;5114290;28;19912;-35
2022/09/02 01:23:08;;;;;;;;;;;;;;;16.53;54.29;101636.34;5114562;28;19911;-35
2022/09/02 01:25:34;;;;;;;;;;;;;;;16.54;54.30;101648.91;5114922;28;19912;-34
2022/09/02 01:28:01;;;;;;;;;;;;;;;16.54;54.27;101641.53;5113762;28;19916;-35
2022/09/02 01:30:26;;;;;;;;;;;;;;;16.50;54.90;101642.34;5114211;28;20255;-35
2022/09/02 01:32:52;;;;;;;;;;;;;;;16.46;54.77;101640.09;5114627;28;19934;-35
2022/09/02 01:35:17;;;;;;;;;;;;;;;16.37;55.13;101630.66;5114306;28;19912;-35
2022/09/02 01:37:44;;;;;;;;;;;;;;;16.37;54.50;101641.59;5114304;28;19911;-35
2022/09/02 01:40:11;;;;;;;;;;;;;;;16.36;56.00;101639.13;5114159;28;19912;-35
2022/09/02 01:42:37;;;;;;;;;;;;;;;16.31;55.25;101636.31;5114490;28;19912;-35
2022/09/02 01:45:03;;;;;;;;;;;;;;;16.33;54.95;101634.16;5113762;28;19934;-35
2022/09/02 01:47:29;;;;;;;;;;;;;;;16.30;55.26;101635.50;5114625;28;19915;-35
2022/09/02 01:49:54;;;;;;;;;;;;;;;16.27;54.91;101626.97;5113825;28;20276;-35
2022/09/02 01:52:21;;;;;;;;;;;;;;;16.22;55.39;101628.53;5113964;28;20300;-35
2022/09/02 01:54:47;;;;;;;;;;;;;;;16.21;55.24;101629.63;5113808;28;20310;-35
2022/09/02 01:57:13;;;;;;;;;;;;;;;16.18;55.70;101624.66;5114698;28;19912;-35
2022/09/02 01:59:38;;;;;;;;;;;;;;;16.12;55.79;101622.09;5113990;28;19916;-35
2022/09/02 02:02:04;;;;;;;;;;;;;;;16.03;56.45;101627.16;5113601;28;19964;-35
2022/09/02 02:04:29;;;;;;;;;;;;;;;15.99;55.44;101623.25;5113469;28;20007;-34
2022/09/02 02:06:54;;;;;;;;;;;;;;;16.02;55.69;101621.94;5113840;28;20057;-34
2022/09/02 02:09:20;;;;;;;;;;;;;;;16.03;55.87;101626.31;5113788;28;19959;-35
2022/09/02 02:11:46;;;;;;;;;;;;;;;16.01;56.14;101626.56;5112196;28;19955;-35
2022/09/02 02:14:11;;;;;;;;;;;;;;;15.99;56.74;101616.97;5113963;28;20320;-35
2022/09/02 02:16:36;;;;;;;;;;;;;;;15.93;56.93;101621.53;5113774;28;19912;-35
2022/09/02 02:19:03;;;;;;;;;;;;;;;15.88;56.99;101633.19;5114439;28;20267;-35
2022/09/02 02:21:29;;;;;;;;;;;;;;;15.84;56.79;101625.72;5113994;28;20268;-34
2022/09/02 02:23:54;;;;;;;;;;;;;;;15.82;56.38;101630.63;5113875;28;20010;-35
2022/09/02 02:26:19;;;;;;;;;;;;;;;15.83;56.54;101621.34;5114450;28;19915;-35
2022/09/02 02:28:44;;;;;;;;;;;;;;;15.84;57.08;101621.09;5113850;28;20263;-34
2022/09/02 02:31:10;;;;;;;;;;;;;;;15.84;57.03;101623.00;5113845;28;19916;-35
2022/09/02 02:33:35;;;;;;;;;;;;;;;15.85;56.46;101611.84;5113608;28;19912;-35
2022/09/02 02:36:03;;;;;;;;;;;;;;;15.86;56.61;101616.25;5113834;28;19937;-35
2022/09/02 02:38:28;;;;;;;;;;;;;;;15.83;57.18;101613.19;5114674;28;20278;-35
2022/09/02 02:40:56;;;;;;;;;;;;;;;15.84;56.79;101609.38;5117782;27;19964;-35
2022/09/02 02:43:21;;;;;;;;;;;;;;;15.84;56.68;101620.28;5118180;27;20018;-35
2022/09/02 02:45:47;;;;;;;;;;;;;;;15.85;56.43;101611.84;5117895;28;19959;-35
2022/09/02 02:48:12;;;;;;;;;;;;;;;15.87;56.84;101609.72;5117547;28;19919;-35
2022/09/02 02:50:37;;;;;;;;;;;;;;;15.87;56.73;101611.63;5117541;28;19918;-34
2022/09/02 02:53:02;;;;;;;;;;;;;;;15.85;56.81;101611.03;5117214;28;19912;-35
2022/09/02 02:55:28;;;;;;;;;;;;;;;15.85;56.78;101605.56;5117443;28;19912;-34
2022/09/02 02:57:53;;;;;;;;;;;;;;;15.83;57.16;101610.44;5117216;28;19919;-35
2022/09/02 03:00:21;;;;;;;;;;;;;;;15.75;56.95;101608.13;5117511;28;19916;-34
2022/09/02 03:02:46;;;;;;;;;;;;;;;15.74;57.20;101592.84;5117372;28;19947;-34
2022/09/02 03:05:13;;;;;;;;;;;;;;;15.69;57.06;101601.75;5117991;28;19951;-34
2022/09/02 03:07:38;;;;;;;;;;;;;;;15.72;56.98;101597.72;5117547;28;19912;-35
2022/09/02 03:10:07;;;;;;;;;;;;;;;15.72;57.55;101600.47;5117190;28;20416;-34
2022/09/02 03:12:32;;;;;;;;;;;;;;;15.72;57.07;101601.28;5117428;27;19925;-34
2022/09/02 03:14:57;;;;;;;;;;;;;;;15.71;57.28;101594.16;5117062;28;19918;-35
2022/09/02 03:17:22;;;;;;;;;;;;;;;15.73;57.26;101604.81;5117091;28;19919;-34
2022/09/02 03:19:49;;;;;;;;;;;;;;;15.67;57.58;101606.66;5116901;28;19912;-35
2022/09/02 03:22:14;;;;;;;;;;;;;;;15.69;57.38;101599.84;5117301;28;19911;-34
2022/09/02 03:24:39;;;;;;;;;;;;;;;15.69;57.49;101596.31;5117281;28;20343;-34
2022/09/02 03:27:05;;;;;;;;;;;;;;;15.69;57.35;101601.75;5116791;28;19919;-34
2022/09/02 03:29:30;;;;;;;;;;;;;;;15.67;57.66;101601.19;5117320;28;19919;-35
2022/09/02 03:31:56;;;;;;;;;;;;;;;15.65;57.73;101595.97;5115395;28;20022;-34
2022/09/02 03:34:21;;;;;;;;;;;;;;;15.66;57.81;101596.78;5116695;28;19973;-34
2022/09/02 03:36:46;;;;;;;;;;;;;;;15.66;57.55;101597.63;5116734;28;19912;-34
2022/09/02 03:39:11;;;;;;;;;;;;;;;15.65;57.33;101597.88;5116601;28;20275;-34
2022/09/02 03:41:39;;;;;;;;;;;;;;;15.63;57.29;101600.84;5116589;28;20381;-35
2022/09/02 03:44:05;;;;;;;;;;;;;;;15.56;58.36;101594.69;5116162;28;20333;-34
2022/09/02 03:46:30;;;;;;;;;;;;;;;15.48;58.08;101577.94;5116433;28;19975;-35
2022/09/02 03:48:56;;;;;;;;;;;;;;;15.48;58.20;101588.81;5115843;28;19958;-34
2022/09/02 03:51:21;;;;;;;;;;;;;;;15.49;58.71;101587.75;5116261;28;19962;-35
2022/09/02 03:53:47;;;;;;;;;;;;;;;15.48;58.25;101588.81;5116280;28;19919;-34
2022/09/02 03:56:14;;;;;;;;;;;;;;;15.44;58.75;101593.94;5116523;28;19918;-34
2022/09/02 03:58:39;;;;;;;;;;;;;;;15.44;58.15;101583.03;5116274;28;19912;-34
2022/09/02 04:01:05;;;;;;;;;;;;;;;15.44;58.45;101585.75;5116710;28;20197;-33
2022/09/02 04:03:30;;;;;;;;;;;;;;;15.44;58.07;101577.59;5115507;28;19991;-33
2022/09/02 04:05:56;;;;;;;;;;;;;;;15.42;58.02;101587.88;5116340;28;19950;-34
2022/09/02 04:08:22;;;;;;;;;;;;;;;15.39;58.19;101577.50;5116329;28;20321;-34
2022/09/02 04:10:47;;;;;;;;;;;;;;;15.38;58.48;101573.94;5116170;28;19911;-34
2022/09/02 04:13:12;;;;;;;;;;;;;;;15.38;58.58;101575.84;5116722;28;20006;-34
2022/09/02 04:15:38;;;;;;;;;;;;;;;15.34;59.07;101571.94;5114667;28;20335;-34
2022/09/02 04:18:03;;;;;;;;;;;;;;;15.32;59.14;101579.53;5115883;28;19915;-34
2022/09/02 04:20:29;;;;;;;;;;;;;;;15.27;59.36;101576.72;5116164;28;19916;-34
2022/09/02 04:22:55;;;;;;;;;;;;;;;15.26;59.38;101564.97;5116470;28;20008;-34
2022/09/02 04:25:22;;;;;;;;;;;;;;;15.27;58.73;101573.97;5115786;28;19915;-34
2022/09/02 04:27:47;;;;;;;;;;;;;;;15.27;59.15;101565.81;5116448;28;19912;-34
2022/09/02 04:30:15;;;;;;;;;;;;;;;15.30;59.59;101566.16;5116043;28;20236;-34
2022/09/02 04:32:40;;;;;;;;;;;;;;;15.32;59.74;101565.91;5115661;28;19961;-34
2022/09/02 04:35:05;;;;;;;;;;;;;;;15.29;59.79;101559.06;5115507;28;19915;-34
2022/09/02 04:37:32;;;;;;;;;;;;;;;15.31;59.54;101561.53;5114865;28;19937;-34
2022/09/02 04:39:57;;;;;;;;;;;;;;;15.31;59.18;101556.09;5115475;28;19912;-35
2022/09/02 04:42:24;;;;;;;;;;;;;;;15.30;59.29;101559.88;5115041;28;20019;-34
2022/09/02 04:44:50;;;;;;;;;;;;;;;15.29;59.27;101559.06;5116022;28;19915;-34
2022/09/02 04:47:15;;;;;;;;;;;;;;;15.26;60.05;101559.53;5115231;28;19973;-34
2022/09/02 04:49:40;;;;;;;;;;;;;;;15.24;59.69;101556.25;5115465;28;19912;-34
2022/09/02 04:52:06;;;;;;;;;;;;;;;15.24;59.84;101560.88;5115743;28;19912;-41
2022/09/02 04:54:31;;;;;;;;;;;;;;;15.26;59.62;101564.16;5114262;28;19918;-34
2022/09/02 04:56:56;;;;;;;;;;;;;;;15.25;60.12;101566.06;5115609;28;19915;-34
2022/09/02 04:59:22;;;;;;;;;;;;;;;15.23;60.29;101559.22;5115129;27;20315;-34
2022/09/02 05:01:48;;;;;;;;;;;;;;;15.22;59.86;101555.66;5115387;28;19911;-34
2022/09/02 05:04:13;;;;;;;;;;;;;;;15.24;60.21;101571.75;5114647;28;19919;-34
2022/09/02 05:06:40;;;;;;;;;;;;;;;15.19;60.50;101564.31;5114661;28;20378;-34
2022/09/02 05:09:07;;;;;;;;;;;;;;;15.15;60.78;101563.16;5114502;28;20012;-34
2022/09/02 05:11:33;;;;;;;;;;;;;;;15.18;60.96;101559.94;5115366;28;20301;-34
2022/09/02 05:14:00;;;;;;;;;;;;;;;15.17;60.77;101561.81;5115368;28;19912;-34
2022/09/02 05:16:35;;;;;;;;;;;;;;;15.18;60.86;101562.69;5114812;28;20254;-34
2022/09/02 05:19:02;;;;;;;;;;;;;;;15.17;60.38;101561.81;5114508;28;19911;-34
2022/09/02 05:21:29;;;;;;;;;;;;;;;15.23;60.88;101567.41;5115403;28;20301;-34
2022/09/02 05:23:56;;;;;;;;;;;;;;;15.25;60.62;101563.34;5114703;28;19942;-34
2022/09/02 05:26:21;;;;;;;;;;;;;;;15.28;60.71;101557.41;5114490;28;19965;-34
2022/09/02 05:28:47;;;;;;;;;;;;;;;15.31;60.87;101558.81;5114151;27;19916;-34
2022/09/02 05:31:14;;;;;;;;;;;;;;;15.35;60.62;101571.69;5114696;28;19912;-35
2022/09/02 05:33:40;;;;;;;;;;;;;;;15.40;60.89;101569.06;5114035;28;19937;-34
2022/09/02 05:36:07;;;;;;;;;;;;;;;15.45;60.06;101565.59;5115098;28;20010;-34
2022/09/02 05:38:33;;;;;;;;;;;;;;;15.49;60.30;101565.94;5114431;28;20360;-34
2022/09/02 05:40:58;;;;;;;;;;;;;;;15.50;60.46;101564.88;5114160;28;20317;-34
2022/09/02 05:43:24;;;;;;;;;;;;;;;15.42;60.94;101572.38;5114430;28;19965;-34
2022/09/02 05:45:49;;;;;;;;;;;;;;;15.44;60.02;101572.13;5113964;28;19915;-34
2022/09/02 05:51:02;;;;;;;;;;;;;;;15.54;60.77;101566.84;5113818;28;19972;-34
2022/09/02 05:53:28;;;;;;;;;;;;;;;15.51;60.90;101566.50;5113776;28;19911;-34
2022/09/02 05:55:53;;;;;;;;;;;;;;;15.53;60.60;101569.84;5114770;28;20010;-34
2022/09/02 05:58:18;;;;;;;;;;;;;;;15.55;60.74;101565.78;5114688;28;19912;-34
2022/09/02 06:00:43;;;;;;;;;;;;;;;15.55;60.83;101564.94;5114357;28;19927;-34
2022/09/02 06:03:08;;;;;;;;;;;;;;;15.57;60.64;101560.09;5113801;28;20272;-34
2022/09/02 06:05:36;;;;;;;;;;;;;;;15.58;60.80;101568.03;5114047;28;20282;-34
2022/09/02 06:08:01;;;;;;;;;;;;;;;15.61;60.58;101561.22;5114186;28;19911;-34
2022/09/02 06:10:26;;;;;;;;;;;;;;;15.65;61.34;101559.69;5113524;28;19911;-34
2022/09/02 06:12:52;;;;;;;;;;;;;;;15.68;60.90;101557.31;5113268;28;19956;-34
2022/09/02 06:15:17;;;;;;;;;;;;;;;15.77;60.30;101560.47;5113660;28;19918;-34
2022/09/02 06:17:42;;;;;;;;;;;;;;;15.79;60.58;101561.03;5114349;28;20006;-34
2022/09/02 06:20:07;;;;;;;;;;;;;;;15.83;60.21;101556.72;5114046;28;19947;-34
2022/09/02 06:22:33;;;;;;;;;;;;;;;15.87;60.18;101560.63;5113943;28;20320;-34
2022/09/02 06:24:58;;;;;;;;;;;;;;;15.90;60.23;101562.00;5113384;28;19973;-34
2022/09/02 06:27:23;;;;;;;;;;;;;;;15.88;60.24;101556.00;5114353;28;19911;-34
2022/09/02 06:29:48;;;;;;;;;;;;;;;15.93;60.26;101561.53;5114000;28;19919;-34
2022/09/02 06:32:14;;;;;;;;;;;;;;;15.95;60.71;101564.81;5113622;28;19911;-35
2022/09/02 06:34:39;;;;;;;;;;;;;;;15.97;60.36;101559.94;5113577;28;19920;-34
2022/09/02 06:37:04;;;;;;;;;;;;;;;16.02;60.16;101551.84;5114011;28;19915;-34
2022/09/02 06:39:29;;;;;;;;;;;;;;;16.07;60.11;101554.66;5113556;28;20029;-34
2022/09/02 06:41:55;;;;;;;;;;;;;;;16.10;60.46;101554.13;5114102;28;19912;-34
2022/09/02 06:44:23;;;;;;;;;;;;;;;16.15;59.94;101556.97;5113511;28;19965;-34
2022/09/02 06:46:56;;;;;;;;;;;;;;;16.17;60.00;101552.06;5113872;28;19912;-34
2022/09/02 06:49:22;;;;;;;;;;;;;;;16.20;60.40;101548.84;5114226;28;19912;-34
2022/09/02 06:51:48;;;;;;;;;;;;;;;16.20;59.86;101548.84;5113796;28;19919;-34
2022/09/02 06:54:15;;;;;;;;;;;;;;;16.25;59.67;101545.34;5113392;28;19919;-34
2022/09/02 06:56:41;;;;;;;;;;;;;;;16.33;59.46;101547.63;5113593;28;19922;-34
2022/09/02 06:59:07;;;;;;;;;;;;;;;16.40;60.16;101548.28;5114074;28;20252;-34
2022/09/02 07:01:32;;;;;;;;;;;;;;;16.45;59.66;101542.91;5113707;28;19942;-33
2022/09/02 07:06:43;;;;;;;;;;;;;;;16.56;59.66;101545.75;5114297;28;19918;-34
2022/09/02 07:09:09;;;;;;;;;;;;;;;16.60;59.40;101542.28;5113492;28;19911;-34
2022/09/02 07:11:36;;;;;;;;;;;;;;;16.61;58.79;101538.44;5114002;28;19918;-34
2022/09/02 07:14:01;;;;;;;;;;;;;;;16.67;59.44;101534.69;5113851;28;19918;-34
2022/09/02 07:16:32;;;;;;;;;;;;;;;16.75;59.47;101525.28;5113321;28;19913;-34
2022/09/02 07:18:59;;;;;;;;;;;;;;;16.80;59.01;101533.53;5111831;28;20006;-34
2022/09/02 07:21:25;;;;;;;;;;;;;;;16.82;58.99;101536.81;5113904;28;19918;-34
2022/09/02 07:23:50;;;;;;;;;;;;;;;16.86;59.25;101535.22;5113513;28;20002;-34
2022/09/02 07:26:16;;;;;;;;;;;;;;;16.92;58.72;101536.91;5117092;28;19911;-34
2022/09/02 07:28:42;;;;;;;;;;;;;;;16.96;59.09;101537.25;5117030;28;19911;-34
2022/09/02 07:31:10;;;;;;;;;;;;;;;17.01;58.83;101540.03;5116444;28;19956;-35
2022/09/02 07:33:36;;;;;;;;;;;;;;;17.08;58.61;101531.63;5117282;28;20015;-35
2022/09/02 07:36:03;;;;;;;;;;;;;;;17.11;58.79;101534.66;5116723;28;20343;-35
2022/09/02 07:38:29;;;;;;;;;;;;;;;17.17;58.77;101533.63;5117377;28;20197;-34
2022/09/02 07:40:54;;;;;;;;;;;;;;;17.27;58.91;101526.59;5116527;28;20005;-35
2022/09/02 07:43:21;;;;;;;;;;;;;;;17.32;58.64;101532.13;5116798;28;19927;-34
2022/09/02 07:45:47;;;;;;;;;;;;;;;17.40;58.43;101528.94;5116815;28;19912;-35
2022/09/02 07:48:14;;;;;;;;;;;;;;;17.48;57.92;101532.00;5116555;28;19911;-34
2022/09/02 07:50:40;;;;;;;;;;;;;;;17.57;57.81;101529.63;5116801;28;20015;-35
2022/09/02 07:53:06;;;;;;;;;;;;;;;17.65;58.16;101525.56;5116461;28;19918;-34
2022/09/02 07:55:33;;;;;;;;;;;;;;;17.71;57.96;101530.84;5116112;28;19927;-34
2022/09/02 07:57:59;;;;;;;;;;;;;;;17.77;57.39;101529.00;5115976;28;19968;-34
2022/09/02 08:00:26;;;;;;;;;;;;;;;17.84;57.35;101535.06;5117177;28;19920;-35
2022/09/02 08:02:52;;;;;;;;;;;;;;;17.87;57.05;101534.53;5116728;28;20253;-34
2022/09/02 08:05:17;;;;;;;;;;;;;;;17.93;57.33;101540.88;5115754;28;20041;-34
2022/09/02 08:07:42;;;;;;;;;;;;;;;17.95;57.24;101536.75;5116670;28;19979;-34
2022/09/02 08:10:09;;;;;;;;;;;;;;;17.98;57.18;101529.94;5115701;28;19912;-34
2022/09/02 08:12:35;;;;;;;;;;;;;;;18.03;57.35;101532.72;5116358;28;20296;-34
2022/09/02 08:15:00;;;;;;;;;;;;;;;18.08;56.91;101532.75;5116093;28;20000;-34
2022/09/02 08:17:26;;;;;;;;;;;;;;;18.12;56.98;101525.66;5116249;28;20260;-34
2022/09/02 08:19:51;;;;;;;;;;;;;;;18.20;57.10;101521.59;5115873;28;19927;-35
2022/09/02 08:22:16;;;;;;;;;;;;;;;18.25;56.77;101519.72;5115581;28;19919;-35
2022/09/02 08:24:41;;;;;;;;;;;;;;;18.36;56.87;101519.78;5115716;28;19965;-34
2022/09/02 08:27:07;;;;;;;;;;;;;;;18.47;56.27;101519.53;5116315;28;20283;-34
2022/09/02 08:29:32;;;;;;;;;;;;;;;18.56;56.46;101514.38;5115388;28;19918;-34
2022/09/02 08:31:57;;;;;;;;;;;;;;;18.65;56.12;101514.69;5115777;27;20347;-34
2022/09/02 08:34:22;;;;;;;;;;;;;;;18.75;56.63;101509.28;5115282;28;20264;-34
2022/09/02 08:36:48;;;;;;;;;;;;;;;18.86;56.02;101507.38;5115083;28;19912;-34
2022/09/02 08:39:13;;;;;;;;;;;;;;;18.96;56.06;101515.63;5113801;28;19912;-34
2022/09/02 08:41:47;;;;;;;;;;;;;;;19.06;55.46;101504.69;5116091;28;19936;-34
2022/09/02 08:44:15;;;;;;;;;;;;;;;19.11;54.97;101503.84;5115101;28;19960;-34
2022/09/02 08:46:41;;;;;;;;;;;;;;;19.18;55.43;101505.25;5115922;28;19911;-34
2022/09/02 08:49:09;;;;;;;;;;;;;;;19.28;55.55;101510.75;5114987;28;19916;-34
2022/09/02 08:51:34;;;;;;;;;;;;;;;19.41;55.55;101503.06;5115292;28;19918;-34
2022/09/02 08:54:05;;;;;;;;;;;;;;;19.47;54.48;101510.19;5114431;28;19911;-34
2022/09/02 08:56:31;;;;;;;;;;;;;;;19.58;55.05;101503.63;5115763;28;19938;-34
2022/09/02 08:58:56;;;;;;;;;;;;;;;19.65;55.01;101504.19;5114791;28;19912;-35
2022/09/02 09:01:23;;;;;;;;;;;;;;;19.74;54.70;101497.03;5115178;28;20029;-35
2022/09/02 09:04:05;;;;;;;;;;;;;;;19.84;54.37;101496.19;5114916;28;19957;-35
2022/09/02 09:06:45;;;;;;;;;;;;;;;19.93;54.13;101501.94;5114767;27;19941;-35
2022/09/02 09:09:27;;;;;;;;;;;;;;;20.02;54.39;101505.78;5114590;28;20002;-35
2022/09/02 09:12:07;;;;;;;;;;;;;;;20.10;53.65;101505.19;5115391;28;19912;-34
2022/09/02 09:14:47;;;;;;;;;;;;;;;20.20;53.76;101505.16;5114710;28;19911;-35
2022/09/02 09:17:21;;;;;;;;;;;;;;;20.28;53.87;101499.09;5114628;28;19911;-35
2022/09/02 09:19:48;;;;;;;;;;;;;;;20.38;53.31;101497.41;5114458;28;19920;-35
2022/09/02 09:22:16;;;;;;;;;;;;;;;20.48;54.07;101491.91;5114385;28;19978;-35
2022/09/02 09:24:43;;;;;;;;;;;;;;;20.60;53.16;101497.09;5114376;28;19911;-35
2022/09/02 09:27:11;;;;;;;;;;;;;;;20.67;52.69;101498.41;5115423;28;19912;-35
2022/09/02 09:29:36;;;;;;;;;;;;;;;20.71;52.94;101484.94;5114509;28;19912;-35
2022/09/02 09:32:04;;;;;;;;;;;;;;;20.77;53.31;101492.84;5115113;28;19981;-35
2022/09/02 09:34:49;;;;;;;;;;;;;;;20.88;52.30;101495.53;5114403;28;19912;-35
2022/09/02 09:37:33;;;;;;;;;;;;;;;20.98;53.11;101488.03;5114915;28;19912;-35
2022/09/02 09:39:58;;;;;;;;;;;;;;;21.11;52.81;101481.09;5114301;28;19915;-34
2022/09/02 09:42:31;;;;;;;;;;;;;;;21.23;52.30;101483.50;5114824;28;20003;-35
2022/09/02 09:44:56;;;;;;;;;;;;;;;21.32;52.34;101481.78;5114159;28;19912;-35
2022/09/02 09:47:24;;;;;;;;;;;;;;;21.43;52.13;101477.84;5113871;28;19922;-35
2022/09/02 09:50:07;;;;;;;;;;;;;;;21.56;51.09;101479.09;5114133;28;19957;-35
2022/09/02 09:52:33;;;;;;;;;;;;;;;21.69;51.58;101475.66;5114418;28;19935;-35
2022/09/02 09:55:07;;;;;;;;;;;;;;;21.81;51.30;101473.34;5113977;28;19912;-35
2022/09/02 09:57:32;;;;;;;;;;;;;;;21.92;49.54;101473.25;5114093;27;19911;-35
2022/09/02 10:00:00;;;;;;;;;;;;;;;22.01;50.61;101468.72;5113873;28;19935;-34
2022/09/02 10:02:26;;;;;;;;;;;;;;;22.13;48.75;101462.84;5114712;28;19915;-35
2022/09/02 10:04:53;;;;;;;;;;;;;;;22.22;49.04;101461.91;5113758;27;19912;-35
2022/09/02 10:07:38;;;;;;;;;;;;;;;22.33;48.74;101468.91;5113968;28;19964;-34
2022/09/02 10:10:17;;;;;;;;;;;;;;;22.41;48.83;101466.63;5114126;28;20311;-34
2022/09/02 10:12:44;;;;;;;;;;;;;;;22.56;47.35;101456.22;5114622;28;19935;-34
2022/09/02 10:15:09;;;;;;;;;;;;;;;22.74;47.82;101465.63;5113476;28;19922;-34
2022/09/02 10:17:53;;;;;;;;;;;;;;;22.88;47.03;101457.41;5113761;28;19912;-34
2022/09/02 10:20:18;;;;;;;;;;;;;;;22.99;48.00;101453.41;5114121;28;19998;-36
2022/09/02 10:22:47;;;;;;;;;;;;;;;23.09;46.90;101449.69;5114245;28;20010;-35
2022/09/02 10:25:12;;;;;;;;;;;;;;;23.15;46.78;101442.94;5113398;28;19923;-35
2022/09/02 10:27:46;;;;;;;;;;;;;;;23.26;46.99;101438.06;5113649;28;20240;-35
2022/09/02 10:30:18;;;;;;;;;;;;;;;23.36;46.48;101433.19;5114444;28;19912;-35
2022/09/02 10:32:53;;;;;;;;;;;;;;;23.44;46.45;101433.63;5113207;28;19923;-35
2022/09/02 10:35:35;;;;;;;;;;;;;;;23.51;44.89;101421.06;5113400;28;19916;-35
2022/09/02 10:38:19;;;;;;;;;;;;;;;23.63;45.38;101424.19;5113949;28;19912;-35
2022/09/02 10:40:53;;;;;;;;;;;;;;;23.79;45.77;101413.66;5113719;28;20355;-35
2022/09/02 10:43:26;;;;;;;;;;;;;;;23.90;43.60;101423.38;5114021;28;19937;-35
2022/09/02 10:45:58;;;;;;;;;;;;;;;24.00;43.22;101421.53;5113625;28;19918;-35
2022/09/02 10:48:29;;;;;;;;;;;;;;;24.02;41.60;101416.53;5114095;28;19919;-35
2022/09/02 10:51:00;;;;;;;;;;;;;;;24.05;41.67;101425.00;5113556;28;19936;-35
2022/09/02 10:53:28;;;;;;;;;;;;;;;24.14;41.36;101420.41;5113884;28;19911;-35
2022/09/02 10:55:57;;;;;;;;;;;;;;;24.20;40.04;101414.75;5113731;28;19958;-35
2022/09/02 10:58:41;;;;;;;;;;;;;;;24.35;42.59;101411.66;5114219;28;19923;-35
2022/09/02 11:01:09;;;;;;;;;;;;;;;24.46;41.18;101407.59;5118280;28;20310;-35
2022/09/02 11:03:39;;;;;;;;;;;;;;;24.57;41.11;101408.19;5117618;28;20056;-35
2022/09/02 11:06:10;;;;;;;;;;;;;;;24.69;38.77;101402.91;5117015;28;19911;-35
2022/09/02 11:08:42;;;;;;;;;;;;;;;24.79;39.37;101388.84;5117061;28;19912;-35
2022/09/02 11:11:14;;;;;;;;;;;;;;;24.96;38.61;101398.41;5117543;27;19912;-35
2022/09/02 11:13:48;;;;;;;;;;;;;;;25.14;38.83;101389.13;5117806;28;19916;-35
2022/09/02 11:16:18;;;;;;;;;;;;;;;25.37;37.61;101390.69;5117614;28;19995;-35
2022/09/02 11:18:43;;;;;;;;;;;;;;;25.54;36.94;101389.97;5117497;28;20270;-35
2022/09/02 11:21:12;;;;;;;;;;;;;;;25.62;35.17;101382.84;5117329;28;19916;-35
2022/09/02 11:23:41;;;;;;;;;;;;;;;25.55;34.60;101382.50;5116735;28;20432;-35
2022/09/02 11:26:14;;;;;;;;;;;;;;;25.58;35.34;101370.78;5116996;28;19911;-35
2022/09/02 11:28:58;;;;;;;;;;;;;;;25.64;34.82;101377.81;5117032;28;19915;-35
2022/09/02 11:31:29;;;;;;;;;;;;;;;25.78;34.81;101366.66;5116539;28;19919;-35
2022/09/02 11:33:58;;;;;;;;;;;;;;;25.80;34.08;101362.41;5116857;28;19927;-35
2022/09/02 11:36:25;;;;;;;;;;;;;;;25.90;34.18;101364.06;5117040;28;19919;-35
2022/09/02 11:38:50;;;;;;;;;;;;;;;26.03;32.17;101370.63;5116998;28;19915;-35
2022/09/02 11:41:27;;;;;;;;;;;;;;;26.14;32.63;101364.44;5116390;28;20355;-35
2022/09/02 11:43:59;;;;;;;;;;;;;;;26.11;32.08;101361.53;5117319;28;20240;-35
2022/09/02 11:46:24;;;;;;;;;;;;;;;25.99;33.54;101356.59;5117390;28;19911;-35
2022/09/02 11:48:50;;;;;;;;;;;;;;;26.04;33.17;101361.16;5116579;28;20014;-35
2022/09/02 11:51:18;;;;;;;;;;;;;;;26.01;30.69;101356.25;5116771;28;19937;-35
2022/09/02 11:53:44;;;;;;;;;;;;;;;26.04;31.21;101364.75;5117064;28;19911;-35
2022/09/02 11:56:13;;;;;;;;;;;;;;;25.96;30.73;101348.91;5116484;28;19915;-35
2022/09/02 11:58:38;;;;;;;;;;;;;;;26.04;30.56;101350.91;5116431;28;19918;-35
2022/09/02 12:01:18;;;;;;;;;;;;;;;26.15;31.69;101340.31;5116608;28;19915;-35
2022/09/02 12:04:03;;;;;;;;;;;;;;;26.03;31.66;101352.03;5116732;28;19912;-34
2022/09/02 12:06:29;;;;;;;;;;;;;;;25.68;31.24;101353.88;5033373;28;19960;-35
2022/09/02 12:08:54;;;;;;;;;;;;;;;25.45;32.13;101346.78;5033705;28;19975;-35
2022/09/02 12:11:37;;;;;;;;;;;;;;;25.41;33.21;101344.63;5032263;28;19928;-35
2022/09/02 12:14:03;;;;;;;;;;;;;;;25.66;33.48;101339.53;5033941;28;20366;-35
2022/09/02 12:16:28;;;;;;;;;;;;;;;25.88;32.44;101322.03;5033091;28;20019;-35
2022/09/02 12:18:53;;;;;;;;;;;;;;;26.07;32.64;101332.81;5033844;28;19920;-35
2022/09/02 12:21:22;;;;;;;;;;;;;;;26.28;32.23;101325.50;5033052;28;19917;-35
2022/09/02 12:23:48;;;;;;;;;;;;;;;26.43;31.47;101327.81;5032953;28;19963;-35
2022/09/02 12:26:14;;;;;;;;;;;;;;;26.63;32.56;101331.06;5032958;28;20032;-35
2022/09/02 12:28:40;;;;;;;;;;;;;;;26.86;31.65;101326.94;5033031;28;19939;-34
2022/09/02 12:31:07;;;;;;;;;;;;;;;27.08;31.23;101317.59;5033355;28;19913;-34
2022/09/02 12:33:32;;;;;;;;;;;;;;;27.00;30.20;101317.63;5033599;28;19913;-34
2022/09/02 12:35:58;;;;;;;;;;;;;;;27.08;30.63;101319.56;5032718;28;20445;-35
2022/09/02 12:38:23;;;;;;;;;;;;;;;26.92;28.51;101314.53;5032734;28;19919;-35
2022/09/02 12:41:04;;;;;;;;;;;;;;;27.03;30.15;101322.50;5032633;28;19923;-35